sensor_id;sensor_type;location;lat;lon;timestamp;P1;durP1;ratioP1;P2;durP2;ratioP2
10945;SDS011;5525;42.648;23.368;2023-08-06T00:01:56;5.70;;;3.10;;
10945;SDS011;5525;42.648;23.368;2023-08-06T00:04:23;3.50;;;3.10;;
10945;SDS011;5525;42.648;23.368;2023-08-06T00:06:50;7.47;;;3.10;;
10945;SDS011;5525;42.648;23.368;2023-08-06T00:09:18;7.57;;;4.03;;
10945;SDS011;5525;42.648;23.368;2023-08-06T00:11:44;5.75;;;3.80;;
10945;SDS011;5525;42.648;23.368;2023-08-06T00:14:11;4.97;;;3.35;;
10945;SDS011;5525;42.648;23.368;2023-08-06T00:16:40;3.33;;;3.00;;
10945;SDS011;5525;42.648;23.368;2023-08-06T00:19:08;4.07;;;3.13;;
10945;SDS011;5525;42.648;23.368;2023-08-06T00:21:35;4.38;;;3.20;;
10945;SDS011;5525;42.648;23.368;2023-08-06T00:24:02;4.88;;;3.50;;
10945;SDS011;5525;42.648;23.368;2023-08-06T00:26:30;3.80;;;3.30;;
10945;SDS011;5525;42.648;23.368;2023-08-06T00:28:56;4.00;;;3.35;;
10945;SDS011;5525;42.648;23.368;2023-08-06T00:31:23;4.70;;;3.42;;
10945;SDS011;5525;42.648;23.368;2023-08-06T00:33:50;4.47;;;3.50;;
10945;SDS011;5525;42.648;23.368;2023-08-06T00:36:16;4.55;;;3.63;;
10945;SDS011;5525;42.648;23.368;2023-08-06T00:38:43;3.92;;;3.53;;
10945;SDS011;5525;42.648;23.368;2023-08-06T00:41:10;4.43;;;3.90;;
10945;SDS011;5525;42.648;23.368;2023-08-06T00:43:38;7.60;;;3.80;;
10945;SDS011;5525;42.648;23.368;2023-08-06T00:46:04;5.43;;;3.90;;
10945;SDS011;5525;42.648;23.368;2023-08-06T00:48:31;4.75;;;3.80;;
10945;SDS011;5525;42.648;23.368;2023-08-06T00:50:58;5.53;;;3.80;;
10945;SDS011;5525;42.648;23.368;2023-08-06T00:53:25;5.15;;;4.15;;
10945;SDS011;5525;42.648;23.368;2023-08-06T00:55:52;3.97;;;3.53;;
10945;SDS011;5525;42.648;23.368;2023-08-06T00:58:19;5.68;;;4.30;;
10945;SDS011;5525;42.648;23.368;2023-08-06T01:00:47;6.93;;;4.32;;
10945;SDS011;5525;42.648;23.368;2023-08-06T01:03:14;6.82;;;4.55;;
10945;SDS011;5525;42.648;23.368;2023-08-06T01:05:41;5.88;;;4.55;;
10945;SDS011;5525;42.648;23.368;2023-08-06T01:08:11;6.25;;;4.43;;
10945;SDS011;5525;42.648;23.368;2023-08-06T01:10:48;5.72;;;4.63;;
10945;SDS011;5525;42.648;23.368;2023-08-06T01:13:28;4.93;;;4.30;;
10945;SDS011;5525;42.648;23.368;2023-08-06T01:16:00;5.43;;;3.90;;
10945;SDS011;5525;42.648;23.368;2023-08-06T01:18:30;6.80;;;4.03;;
10945;SDS011;5525;42.648;23.368;2023-08-06T01:20:58;4.82;;;4.18;;
10945;SDS011;5525;42.648;23.368;2023-08-06T01:23:25;5.95;;;4.53;;
10945;SDS011;5525;42.648;23.368;2023-08-06T01:25:53;6.70;;;4.45;;
10945;SDS011;5525;42.648;23.368;2023-08-06T01:28:27;4.93;;;4.00;;
10945;SDS011;5525;42.648;23.368;2023-08-06T01:31:03;5.95;;;3.97;;
10945;SDS011;5525;42.648;23.368;2023-08-06T01:33:35;4.18;;;3.70;;
10945;SDS011;5525;42.648;23.368;2023-08-06T01:36:11;4.05;;;3.65;;
10945;SDS011;5525;42.648;23.368;2023-08-06T01:38:38;5.13;;;4.10;;
10945;SDS011;5525;42.648;23.368;2023-08-06T01:41:05;6.88;;;4.22;;
10945;SDS011;5525;42.648;23.368;2023-08-06T01:43:32;6.53;;;4.40;;
10945;SDS011;5525;42.648;23.368;2023-08-06T01:45:58;6.53;;;4.45;;
10945;SDS011;5525;42.648;23.368;2023-08-06T01:48:25;5.53;;;4.30;;
10945;SDS011;5525;42.648;23.368;2023-08-06T01:50:52;5.85;;;4.20;;
10945;SDS011;5525;42.648;23.368;2023-08-06T01:53:20;6.22;;;4.50;;
10945;SDS011;5525;42.648;23.368;2023-08-06T01:55:47;5.55;;;4.60;;
10945;SDS011;5525;42.648;23.368;2023-08-06T01:58:14;5.57;;;4.60;;
10945;SDS011;5525;42.648;23.368;2023-08-06T02:00:41;6.85;;;4.35;;
10945;SDS011;5525;42.648;23.368;2023-08-06T02:03:08;5.40;;;4.25;;
10945;SDS011;5525;42.648;23.368;2023-08-06T02:05:34;5.10;;;4.45;;
10945;SDS011;5525;42.648;23.368;2023-08-06T02:08:01;5.20;;;4.32;;
10945;SDS011;5525;42.648;23.368;2023-08-06T02:10:29;5.20;;;4.70;;
10945;SDS011;5525;42.648;23.368;2023-08-06T02:12:55;6.35;;;4.85;;
10945;SDS011;5525;42.648;23.368;2023-08-06T02:15:22;5.75;;;5.10;;
10945;SDS011;5525;42.648;23.368;2023-08-06T02:17:49;5.55;;;4.30;;
10945;SDS011;5525;42.648;23.368;2023-08-06T02:20:16;6.47;;;4.55;;
10945;SDS011;5525;42.648;23.368;2023-08-06T02:22:42;5.38;;;4.88;;
10945;SDS011;5525;42.648;23.368;2023-08-06T02:25:09;8.60;;;4.85;;
10945;SDS011;5525;42.648;23.368;2023-08-06T02:27:38;5.43;;;4.38;;
10945;SDS011;5525;42.648;23.368;2023-08-06T02:30:05;4.63;;;3.50;;
10945;SDS011;5525;42.648;23.368;2023-08-06T02:32:32;4.38;;;3.90;;
10945;SDS011;5525;42.648;23.368;2023-08-06T02:35:00;5.53;;;3.95;;
10945;SDS011;5525;42.648;23.368;2023-08-06T02:37:27;5.32;;;3.78;;
10945;SDS011;5525;42.648;23.368;2023-08-06T02:39:54;4.57;;;3.88;;
10945;SDS011;5525;42.648;23.368;2023-08-06T02:42:20;4.97;;;4.20;;
10945;SDS011;5525;42.648;23.368;2023-08-06T02:44:49;4.53;;;4.13;;
10945;SDS011;5525;42.648;23.368;2023-08-06T02:47:16;6.38;;;4.50;;
10945;SDS011;5525;42.648;23.368;2023-08-06T02:49:43;6.43;;;4.72;;
10945;SDS011;5525;42.648;23.368;2023-08-06T02:52:10;4.95;;;4.45;;
10945;SDS011;5525;42.648;23.368;2023-08-06T02:54:36;7.10;;;3.70;;
10945;SDS011;5525;42.648;23.368;2023-08-06T02:57:04;6.63;;;4.20;;
10945;SDS011;5525;42.648;23.368;2023-08-06T02:59:31;6.13;;;4.80;;
10945;SDS011;5525;42.648;23.368;2023-08-06T03:02:00;5.60;;;4.13;;
10945;SDS011;5525;42.648;23.368;2023-08-06T03:04:27;5.13;;;4.32;;
10945;SDS011;5525;42.648;23.368;2023-08-06T03:06:54;5.53;;;4.95;;
10945;SDS011;5525;42.648;23.368;2023-08-06T03:09:21;6.65;;;4.55;;
10945;SDS011;5525;42.648;23.368;2023-08-06T03:11:47;5.90;;;4.28;;
10945;SDS011;5525;42.648;23.368;2023-08-06T03:14:14;8.20;;;4.85;;
10945;SDS011;5525;42.648;23.368;2023-08-06T03:16:41;6.38;;;4.45;;
10945;SDS011;5525;42.648;23.368;2023-08-06T03:19:09;5.40;;;4.20;;
10945;SDS011;5525;42.648;23.368;2023-08-06T03:21:36;5.72;;;4.30;;
10945;SDS011;5525;42.648;23.368;2023-08-06T03:24:03;6.70;;;4.93;;
10945;SDS011;5525;42.648;23.368;2023-08-06T03:26:30;7.97;;;4.97;;
10945;SDS011;5525;42.648;23.368;2023-08-06T03:28:56;6.10;;;4.00;;
10945;SDS011;5525;42.648;23.368;2023-08-06T03:31:23;6.82;;;4.65;;
10945;SDS011;5525;42.648;23.368;2023-08-06T03:33:50;5.18;;;4.20;;
10945;SDS011;5525;42.648;23.368;2023-08-06T03:36:18;6.10;;;3.95;;
10945;SDS011;5525;42.648;23.368;2023-08-06T03:38:44;4.82;;;4.30;;
10945;SDS011;5525;42.648;23.368;2023-08-06T03:41:11;4.82;;;4.32;;
10945;SDS011;5525;42.648;23.368;2023-08-06T03:43:38;5.22;;;4.03;;
10945;SDS011;5525;42.648;23.368;2023-08-06T03:46:04;4.70;;;4.10;;
10945;SDS011;5525;42.648;23.368;2023-08-06T03:48:31;5.10;;;4.60;;
10945;SDS011;5525;42.648;23.368;2023-08-06T03:50:57;4.50;;;4.10;;
10945;SDS011;5525;42.648;23.368;2023-08-06T03:53:27;4.18;;;3.78;;
10945;SDS011;5525;42.648;23.368;2023-08-06T03:55:54;5.13;;;4.50;;
10945;SDS011;5525;42.648;23.368;2023-08-06T03:58:24;5.72;;;4.22;;
10945;SDS011;5525;42.648;23.368;2023-08-06T04:00:57;5.93;;;4.55;;
10945;SDS011;5525;42.648;23.368;2023-08-06T04:03:24;5.70;;;4.45;;
10945;SDS011;5525;42.648;23.368;2023-08-06T04:05:51;5.65;;;4.60;;
10945;SDS011;5525;42.648;23.368;2023-08-06T04:08:17;5.00;;;4.30;;
10945;SDS011;5525;42.648;23.368;2023-08-06T04:10:45;4.43;;;4.03;;
10945;SDS011;5525;42.648;23.368;2023-08-06T04:13:15;5.60;;;4.03;;
10945;SDS011;5525;42.648;23.368;2023-08-06T04:15:42;4.05;;;3.42;;
10945;SDS011;5525;42.648;23.368;2023-08-06T04:18:08;5.43;;;3.85;;
10945;SDS011;5525;42.648;23.368;2023-08-06T04:20:35;6.82;;;4.03;;
10945;SDS011;5525;42.648;23.368;2023-08-06T04:23:08;5.47;;;4.32;;
10945;SDS011;5525;42.648;23.368;2023-08-06T04:25:35;4.85;;;4.13;;
10945;SDS011;5525;42.648;23.368;2023-08-06T04:28:03;6.10;;;4.22;;
10945;SDS011;5525;42.648;23.368;2023-08-06T04:30:30;4.40;;;4.00;;
10945;SDS011;5525;42.648;23.368;2023-08-06T04:32:57;4.43;;;4.00;;
10945;SDS011;5525;42.648;23.368;2023-08-06T04:35:24;5.70;;;4.30;;
10945;SDS011;5525;42.648;23.368;2023-08-06T04:37:50;5.85;;;4.80;;
10945;SDS011;5525;42.648;23.368;2023-08-06T04:40:17;5.03;;;4.45;;
10945;SDS011;5525;42.648;23.368;2023-08-06T04:42:44;5.55;;;4.75;;
10945;SDS011;5525;42.648;23.368;2023-08-06T04:45:12;5.65;;;4.47;;
10945;SDS011;5525;42.648;23.368;2023-08-06T04:47:39;4.93;;;4.05;;
10945;SDS011;5525;42.648;23.368;2023-08-06T04:50:06;5.38;;;3.95;;
10945;SDS011;5525;42.648;23.368;2023-08-06T04:52:33;4.00;;;3.63;;
10945;SDS011;5525;42.648;23.368;2023-08-06T04:54:59;5.35;;;3.63;;
10945;SDS011;5525;42.648;23.368;2023-08-06T04:57:26;4.57;;;3.78;;
10945;SDS011;5525;42.648;23.368;2023-08-06T04:59:52;5.93;;;4.55;;
10945;SDS011;5525;42.648;23.368;2023-08-06T05:02:20;5.10;;;4.10;;
10945;SDS011;5525;42.648;23.368;2023-08-06T05:04:47;3.97;;;3.67;;
10945;SDS011;5525;42.648;23.368;2023-08-06T05:07:14;6.03;;;3.85;;
10945;SDS011;5525;42.648;23.368;2023-08-06T05:09:40;4.45;;;3.90;;
10945;SDS011;5525;42.648;23.368;2023-08-06T05:12:07;5.45;;;4.95;;
10945;SDS011;5525;42.648;23.368;2023-08-06T05:14:34;5.80;;;4.43;;
10945;SDS011;5525;42.648;23.368;2023-08-06T05:17:01;6.00;;;4.78;;
10945;SDS011;5525;42.648;23.368;2023-08-06T05:19:30;5.30;;;4.60;;
10945;SDS011;5525;42.648;23.368;2023-08-06T05:21:57;5.75;;;5.15;;
10945;SDS011;5525;42.648;23.368;2023-08-06T05:24:24;7.90;;;4.70;;
10945;SDS011;5525;42.648;23.368;2023-08-06T05:26:51;5.88;;;4.90;;
10945;SDS011;5525;42.648;23.368;2023-08-06T05:29:17;4.47;;;4.07;;
10945;SDS011;5525;42.648;23.368;2023-08-06T05:31:44;4.90;;;4.32;;
10945;SDS011;5525;42.648;23.368;2023-08-06T05:34:11;6.15;;;4.53;;
10945;SDS011;5525;42.648;23.368;2023-08-06T05:36:39;6.07;;;4.97;;
10945;SDS011;5525;42.648;23.368;2023-08-06T05:39:05;5.40;;;4.90;;
10945;SDS011;5525;42.648;23.368;2023-08-06T05:41:32;6.13;;;5.53;;
10945;SDS011;5525;42.648;23.368;2023-08-06T05:43:59;6.47;;;5.60;;
10945;SDS011;5525;42.648;23.368;2023-08-06T05:46:25;7.45;;;6.20;;
10945;SDS011;5525;42.648;23.368;2023-08-06T05:48:52;7.60;;;6.80;;
10945;SDS011;5525;42.648;23.368;2023-08-06T05:51:19;8.52;;;6.88;;
10945;SDS011;5525;42.648;23.368;2023-08-06T05:53:47;7.80;;;7.00;;
10945;SDS011;5525;42.648;23.368;2023-08-06T05:56:15;8.60;;;7.60;;
10945;SDS011;5525;42.648;23.368;2023-08-06T05:58:42;9.13;;;7.88;;
10945;SDS011;5525;42.648;23.368;2023-08-06T06:01:08;7.57;;;6.68;;
10945;SDS011;5525;42.648;23.368;2023-08-06T06:03:35;7.95;;;7.25;;
10945;SDS011;5525;42.648;23.368;2023-08-06T06:06:02;7.18;;;5.65;;
10945;SDS011;5525;42.648;23.368;2023-08-06T06:08:28;4.80;;;4.40;;
10945;SDS011;5525;42.648;23.368;2023-08-06T06:10:56;4.75;;;4.32;;
10945;SDS011;5525;42.648;23.368;2023-08-06T06:13:24;5.28;;;3.90;;
10945;SDS011;5525;42.648;23.368;2023-08-06T06:15:53;4.50;;;3.75;;
10945;SDS011;5525;42.648;23.368;2023-08-06T06:18:20;3.30;;;3.03;;
10945;SDS011;5525;42.648;23.368;2023-08-06T06:20:47;3.70;;;3.30;;
10945;SDS011;5525;42.648;23.368;2023-08-06T06:23:13;4.93;;;3.90;;
10945;SDS011;5525;42.648;23.368;2023-08-06T06:25:41;4.43;;;4.00;;
10945;SDS011;5525;42.648;23.368;2023-08-06T06:28:10;4.38;;;3.97;;
10945;SDS011;5525;42.648;23.368;2023-08-06T06:30:36;4.15;;;3.30;;
10945;SDS011;5525;42.648;23.368;2023-08-06T06:33:03;4.55;;;3.60;;
10945;SDS011;5525;42.648;23.368;2023-08-06T06:35:30;4.47;;;3.30;;
10945;SDS011;5525;42.648;23.368;2023-08-06T06:37:57;2.88;;;2.58;;
10945;SDS011;5525;42.648;23.368;2023-08-06T06:40:24;5.95;;;3.22;;
10945;SDS011;5525;42.648;23.368;2023-08-06T06:42:50;3.60;;;3.10;;
10945;SDS011;5525;42.648;23.368;2023-08-06T06:45:18;4.30;;;3.20;;
10945;SDS011;5525;42.648;23.368;2023-08-06T06:47:45;4.95;;;3.08;;
10945;SDS011;5525;42.648;23.368;2023-08-06T06:50:12;3.78;;;3.05;;
10945;SDS011;5525;42.648;23.368;2023-08-06T06:52:38;5.00;;;3.00;;
10945;SDS011;5525;42.648;23.368;2023-08-06T06:55:05;3.97;;;3.10;;
10945;SDS011;5525;42.648;23.368;2023-08-06T06:57:32;4.50;;;2.78;;
10945;SDS011;5525;42.648;23.368;2023-08-06T06:59:58;3.97;;;2.70;;
10945;SDS011;5525;42.648;23.368;2023-08-06T07:02:27;4.03;;;2.72;;
10945;SDS011;5525;42.648;23.368;2023-08-06T07:04:53;3.25;;;2.95;;
10945;SDS011;5525;42.648;23.368;2023-08-06T07:07:20;2.97;;;2.78;;
10945;SDS011;5525;42.648;23.368;2023-08-06T07:09:46;3.38;;;3.13;;
10945;SDS011;5525;42.648;23.368;2023-08-06T07:12:13;5.07;;;4.68;;
10945;SDS011;5525;42.648;23.368;2023-08-06T07:14:40;5.15;;;4.70;;
10945;SDS011;5525;42.648;23.368;2023-08-06T07:17:06;6.18;;;5.05;;
10945;SDS011;5525;42.648;23.368;2023-08-06T07:19:34;6.90;;;5.80;;
10945;SDS011;5525;42.648;23.368;2023-08-06T07:22:01;4.93;;;4.43;;
10945;SDS011;5525;42.648;23.368;2023-08-06T07:24:28;3.00;;;2.70;;
10945;SDS011;5525;42.648;23.368;2023-08-06T07:26:54;3.38;;;3.00;;
10945;SDS011;5525;42.648;23.368;2023-08-06T07:29:21;3.22;;;2.80;;
10945;SDS011;5525;42.648;23.368;2023-08-06T07:31:48;3.60;;;2.60;;
10945;SDS011;5525;42.648;23.368;2023-08-06T07:34:15;3.88;;;2.92;;
10945;SDS011;5525;42.648;23.368;2023-08-06T07:36:44;3.28;;;2.90;;
10945;SDS011;5525;42.648;23.368;2023-08-06T07:39:12;3.40;;;2.92;;
10945;SDS011;5525;42.648;23.368;2023-08-06T07:41:38;2.90;;;2.67;;
10945;SDS011;5525;42.648;23.368;2023-08-06T07:44:06;2.97;;;2.55;;
10945;SDS011;5525;42.648;23.368;2023-08-06T07:46:33;2.67;;;2.45;;
10945;SDS011;5525;42.648;23.368;2023-08-06T07:48:59;3.75;;;2.95;;
10945;SDS011;5525;42.648;23.368;2023-08-06T07:51:26;3.00;;;2.70;;
10945;SDS011;5525;42.648;23.368;2023-08-06T07:53:54;2.78;;;2.55;;
10945;SDS011;5525;42.648;23.368;2023-08-06T07:56:21;4.68;;;2.85;;
10945;SDS011;5525;42.648;23.368;2023-08-06T07:58:47;3.88;;;2.60;;
10945;SDS011;5525;42.648;23.368;2023-08-06T08:01:14;5.45;;;2.80;;
10945;SDS011;5525;42.648;23.368;2023-08-06T08:03:41;2.78;;;2.55;;
10945;SDS011;5525;42.648;23.368;2023-08-06T08:06:07;3.30;;;3.00;;
10945;SDS011;5525;42.648;23.368;2023-08-06T08:08:34;3.00;;;2.67;;
10945;SDS011;5525;42.648;23.368;2023-08-06T08:11:05;3.17;;;2.80;;
10945;SDS011;5525;42.648;23.368;2023-08-06T08:13:31;3.10;;;2.80;;
10945;SDS011;5525;42.648;23.368;2023-08-06T08:15:59;3.17;;;2.90;;
10945;SDS011;5525;42.648;23.368;2023-08-06T08:18:26;3.80;;;3.08;;
10945;SDS011;5525;42.648;23.368;2023-08-06T08:20:53;3.28;;;2.97;;
10945;SDS011;5525;42.648;23.368;2023-08-06T08:23:19;3.67;;;2.80;;
10945;SDS011;5525;42.648;23.368;2023-08-06T08:25:46;4.30;;;3.28;;
10945;SDS011;5525;42.648;23.368;2023-08-06T08:28:14;2.75;;;2.55;;
10945;SDS011;5525;42.648;23.368;2023-08-06T08:30:41;2.88;;;2.67;;
10945;SDS011;5525;42.648;23.368;2023-08-06T08:33:08;2.95;;;2.75;;
10945;SDS011;5525;42.648;23.368;2023-08-06T08:35:35;3.13;;;2.83;;
10945;SDS011;5525;42.648;23.368;2023-08-06T08:38:02;3.83;;;3.38;;
10945;SDS011;5525;42.648;23.368;2023-08-06T08:40:30;3.72;;;3.28;;
10945;SDS011;5525;42.648;23.368;2023-08-06T08:42:58;3.30;;;3.00;;
10945;SDS011;5525;42.648;23.368;2023-08-06T08:45:28;3.33;;;3.03;;
10945;SDS011;5525;42.648;23.368;2023-08-06T08:47:55;3.53;;;3.00;;
10945;SDS011;5525;42.648;23.368;2023-08-06T08:50:22;3.13;;;2.60;;
10945;SDS011;5525;42.648;23.368;2023-08-06T08:52:49;3.30;;;2.67;;
10945;SDS011;5525;42.648;23.368;2023-08-06T08:55:17;3.50;;;3.05;;
10945;SDS011;5525;42.648;23.368;2023-08-06T08:57:46;2.97;;;2.67;;
10945;SDS011;5525;42.648;23.368;2023-08-06T09:00:13;3.40;;;3.10;;
10945;SDS011;5525;42.648;23.368;2023-08-06T09:02:41;3.35;;;3.13;;
10945;SDS011;5525;42.648;23.368;2023-08-06T09:05:08;3.25;;;2.95;;
10945;SDS011;5525;42.648;23.368;2023-08-06T09:07:37;5.78;;;3.33;;
10945;SDS011;5525;42.648;23.368;2023-08-06T09:10:07;4.07;;;3.08;;
10945;SDS011;5525;42.648;23.368;2023-08-06T09:12:37;3.90;;;2.80;;
10945;SDS011;5525;42.648;23.368;2023-08-06T09:15:04;2.95;;;2.72;;
10945;SDS011;5525;42.648;23.368;2023-08-06T09:17:31;3.67;;;2.88;;
10945;SDS011;5525;42.648;23.368;2023-08-06T09:19:59;5.32;;;2.92;;
10945;SDS011;5525;42.648;23.368;2023-08-06T09:22:35;3.38;;;2.95;;
10945;SDS011;5525;42.648;23.368;2023-08-06T09:25:02;3.25;;;2.95;;
10945;SDS011;5525;42.648;23.368;2023-08-06T09:27:34;3.00;;;2.70;;
10945;SDS011;5525;42.648;23.368;2023-08-06T09:30:01;4.55;;;2.90;;
10945;SDS011;5525;42.648;23.368;2023-08-06T09:32:33;4.00;;;2.90;;
10945;SDS011;5525;42.648;23.368;2023-08-06T09:35:16;2.97;;;2.70;;
10945;SDS011;5525;42.648;23.368;2023-08-06T09:37:43;3.15;;;2.95;;
10945;SDS011;5525;42.648;23.368;2023-08-06T09:40:23;2.95;;;2.75;;
10945;SDS011;5525;42.648;23.368;2023-08-06T09:42:51;3.10;;;2.80;;
10945;SDS011;5525;42.648;23.368;2023-08-06T09:45:18;3.25;;;2.90;;
10945;SDS011;5525;42.648;23.368;2023-08-06T09:47:47;3.08;;;2.78;;
10945;SDS011;5525;42.648;23.368;2023-08-06T09:50:18;2.88;;;2.67;;
10945;SDS011;5525;42.648;23.368;2023-08-06T09:52:46;3.17;;;2.20;;
10945;SDS011;5525;42.648;23.368;2023-08-06T09:55:13;3.58;;;2.30;;
10945;SDS011;5525;42.648;23.368;2023-08-06T09:57:41;2.85;;;2.28;;
10945;SDS011;5525;42.648;23.368;2023-08-06T10:00:08;2.97;;;2.50;;
10945;SDS011;5525;42.648;23.368;2023-08-06T10:02:37;3.22;;;2.50;;
10945;SDS011;5525;42.648;23.368;2023-08-06T10:05:04;3.38;;;2.55;;
10945;SDS011;5525;42.648;23.368;2023-08-06T10:07:33;3.13;;;2.83;;
10945;SDS011;5525;42.648;23.368;2023-08-06T10:10:00;3.90;;;2.65;;
10945;SDS011;5525;42.648;23.368;2023-08-06T10:12:28;3.70;;;3.08;;
10945;SDS011;5525;42.648;23.368;2023-08-06T10:14:57;4.00;;;2.90;;
10945;SDS011;5525;42.648;23.368;2023-08-06T10:17:27;2.85;;;2.65;;
10945;SDS011;5525;42.648;23.368;2023-08-06T10:19:55;3.15;;;2.45;;
10945;SDS011;5525;42.648;23.368;2023-08-06T10:22:22;2.55;;;2.30;;
10945;SDS011;5525;42.648;23.368;2023-08-06T10:24:51;3.65;;;2.30;;
10945;SDS011;5525;42.648;23.368;2023-08-06T10:27:22;2.30;;;2.10;;
10945;SDS011;5525;42.648;23.368;2023-08-06T10:29:54;2.95;;;2.42;;
10945;SDS011;5525;42.648;23.368;2023-08-06T10:32:21;3.72;;;2.75;;
10945;SDS011;5525;42.648;23.368;2023-08-06T10:34:54;2.40;;;2.20;;
10945;SDS011;5525;42.648;23.368;2023-08-06T10:37:22;2.35;;;2.08;;
10945;SDS011;5525;42.648;23.368;2023-08-06T10:39:51;2.60;;;2.40;;
10945;SDS011;5525;42.648;23.368;2023-08-06T10:42:22;2.30;;;2.10;;
10945;SDS011;5525;42.648;23.368;2023-08-06T10:45:12;3.15;;;2.33;;
10945;SDS011;5525;42.648;23.368;2023-08-06T10:47:40;2.60;;;2.20;;
10945;SDS011;5525;42.648;23.368;2023-08-06T10:50:07;2.72;;;2.15;;
10945;SDS011;5525;42.648;23.368;2023-08-06T10:52:36;2.63;;;2.10;;
10945;SDS011;5525;42.648;23.368;2023-08-06T10:55:05;3.97;;;2.33;;
10945;SDS011;5525;42.648;23.368;2023-08-06T10:57:32;4.03;;;2.40;;
10945;SDS011;5525;42.648;23.368;2023-08-06T10:59:59;3.05;;;2.70;;
10945;SDS011;5525;42.648;23.368;2023-08-06T11:02:25;3.50;;;2.70;;
10945;SDS011;5525;42.648;23.368;2023-08-06T11:04:52;4.20;;;2.42;;
10945;SDS011;5525;42.648;23.368;2023-08-06T11:07:19;2.83;;;2.58;;
10945;SDS011;5525;42.648;23.368;2023-08-06T11:09:49;2.85;;;2.65;;
10945;SDS011;5525;42.648;23.368;2023-08-06T11:12:19;2.60;;;2.40;;
10945;SDS011;5525;42.648;23.368;2023-08-06T11:14:49;2.85;;;2.38;;
10945;SDS011;5525;42.648;23.368;2023-08-06T11:17:16;4.13;;;2.60;;
10945;SDS011;5525;42.648;23.368;2023-08-06T11:19:43;2.67;;;2.35;;
10945;SDS011;5525;42.648;23.368;2023-08-06T11:22:10;3.53;;;2.40;;
10945;SDS011;5525;42.648;23.368;2023-08-06T11:24:37;3.22;;;2.92;;
10945;SDS011;5525;42.648;23.368;2023-08-06T11:27:10;2.63;;;2.42;;
10945;SDS011;5525;42.648;23.368;2023-08-06T11:29:39;2.75;;;2.55;;
10945;SDS011;5525;42.648;23.368;2023-08-06T11:32:06;2.40;;;2.20;;
10945;SDS011;5525;42.648;23.368;2023-08-06T11:34:33;2.67;;;2.47;;
10945;SDS011;5525;42.648;23.368;2023-08-06T11:37:00;2.72;;;2.33;;
10945;SDS011;5525;42.648;23.368;2023-08-06T11:39:29;4.13;;;2.60;;
10945;SDS011;5525;42.648;23.368;2023-08-06T11:41:56;3.90;;;2.85;;
10945;SDS011;5525;42.648;23.368;2023-08-06T11:44:25;3.72;;;3.03;;
10945;SDS011;5525;42.648;23.368;2023-08-06T11:46:54;3.22;;;2.92;;
10945;SDS011;5525;42.648;23.368;2023-08-06T11:49:36;4.25;;;3.85;;
10945;SDS011;5525;42.648;23.368;2023-08-06T11:52:07;3.90;;;3.20;;
10945;SDS011;5525;42.648;23.368;2023-08-06T11:54:36;3.75;;;2.72;;
10945;SDS011;5525;42.648;23.368;2023-08-06T11:57:03;4.20;;;3.40;;
10945;SDS011;5525;42.648;23.368;2023-08-06T11:59:32;3.50;;;3.20;;
10945;SDS011;5525;42.648;23.368;2023-08-06T12:02:01;4.32;;;3.42;;
10945;SDS011;5525;42.648;23.368;2023-08-06T12:04:29;3.92;;;3.53;;
10945;SDS011;5525;42.648;23.368;2023-08-06T12:06:56;3.78;;;3.47;;
10945;SDS011;5525;42.648;23.368;2023-08-06T12:09:32;3.58;;;3.03;;
10945;SDS011;5525;42.648;23.368;2023-08-06T12:12:01;4.20;;;3.47;;
10945;SDS011;5525;42.648;23.368;2023-08-06T12:14:28;3.92;;;3.45;;
10945;SDS011;5525;42.648;23.368;2023-08-06T12:16:55;5.38;;;3.33;;
10945;SDS011;5525;42.648;23.368;2023-08-06T12:19:23;3.40;;;3.13;;
10945;SDS011;5525;42.648;23.368;2023-08-06T12:21:49;3.83;;;3.53;;
10945;SDS011;5525;42.648;23.368;2023-08-06T12:24:16;4.22;;;3.75;;
10945;SDS011;5525;42.648;23.368;2023-08-06T12:26:42;6.35;;;3.85;;
10945;SDS011;5525;42.648;23.368;2023-08-06T12:29:09;4.40;;;4.00;;
10945;SDS011;5525;42.648;23.368;2023-08-06T12:31:36;4.82;;;4.40;;
10945;SDS011;5525;42.648;23.368;2023-08-06T12:34:02;5.25;;;4.22;;
10945;SDS011;5525;42.648;23.368;2023-08-06T12:36:30;6.00;;;3.97;;
10945;SDS011;5525;42.648;23.368;2023-08-06T12:38:57;4.82;;;4.22;;
10945;SDS011;5525;42.648;23.368;2023-08-06T12:41:24;4.88;;;4.47;;
10945;SDS011;5525;42.648;23.368;2023-08-06T12:43:50;4.82;;;4.43;;
10945;SDS011;5525;42.648;23.368;2023-08-06T12:46:17;5.70;;;4.70;;
10945;SDS011;5525;42.648;23.368;2023-08-06T12:48:44;5.30;;;4.80;;
10945;SDS011;5525;42.648;23.368;2023-08-06T12:51:10;5.35;;;4.85;;
10945;SDS011;5525;42.648;23.368;2023-08-06T12:53:38;5.30;;;4.80;;
10945;SDS011;5525;42.648;23.368;2023-08-06T12:56:05;5.38;;;4.85;;
10945;SDS011;5525;42.648;23.368;2023-08-06T12:58:32;5.03;;;4.50;;
10945;SDS011;5525;42.648;23.368;2023-08-06T13:00:58;5.88;;;4.40;;
10945;SDS011;5525;42.648;23.368;2023-08-06T13:03:25;5.30;;;4.80;;
10945;SDS011;5525;42.648;23.368;2023-08-06T13:05:52;5.60;;;5.10;;
10945;SDS011;5525;42.648;23.368;2023-08-06T13:08:18;5.72;;;4.70;;
10945;SDS011;5525;42.648;23.368;2023-08-06T13:10:46;5.10;;;4.57;;
10945;SDS011;5525;42.648;23.368;2023-08-06T13:13:13;5.15;;;4.65;;
10945;SDS011;5525;42.648;23.368;2023-08-06T13:15:40;5.20;;;4.80;;
10945;SDS011;5525;42.648;23.368;2023-08-06T13:18:06;5.22;;;4.72;;
10945;SDS011;5525;42.648;23.368;2023-08-06T13:20:33;5.82;;;4.90;;
10945;SDS011;5525;42.648;23.368;2023-08-06T13:23:00;5.75;;;4.45;;
10945;SDS011;5525;42.648;23.368;2023-08-06T13:25:27;6.70;;;4.60;;
10945;SDS011;5525;42.648;23.368;2023-08-06T13:27:55;5.32;;;4.32;;
10945;SDS011;5525;42.648;23.368;2023-08-06T13:30:22;4.93;;;4.43;;
10945;SDS011;5525;42.648;23.368;2023-08-06T13:32:49;5.18;;;4.68;;
10945;SDS011;5525;42.648;23.368;2023-08-06T13:35:15;5.75;;;4.47;;
10945;SDS011;5525;42.648;23.368;2023-08-06T13:37:42;5.07;;;4.63;;
10945;SDS011;5525;42.648;23.368;2023-08-06T13:40:09;5.13;;;4.72;;
10945;SDS011;5525;42.648;23.368;2023-08-06T13:42:36;5.93;;;4.50;;
10945;SDS011;5525;42.648;23.368;2023-08-06T13:45:05;5.15;;;4.65;;
10945;SDS011;5525;42.648;23.368;2023-08-06T13:47:32;4.97;;;4.55;;
10945;SDS011;5525;42.648;23.368;2023-08-06T13:49:59;5.20;;;4.70;;
10945;SDS011;5525;42.648;23.368;2023-08-06T13:52:26;5.80;;;4.70;;
10945;SDS011;5525;42.648;23.368;2023-08-06T13:54:52;12.00;;;5.07;;
10945;SDS011;5525;42.648;23.368;2023-08-06T13:57:19;4.82;;;4.43;;
10945;SDS011;5525;42.648;23.368;2023-08-06T13:59:46;5.22;;;4.35;;
10945;SDS011;5525;42.648;23.368;2023-08-06T14:02:14;4.57;;;4.18;;
10945;SDS011;5525;42.648;23.368;2023-08-06T14:04:40;5.03;;;4.35;;
10945;SDS011;5525;42.648;23.368;2023-08-06T14:07:07;4.63;;;4.22;;
10945;SDS011;5525;42.648;23.368;2023-08-06T14:09:34;5.38;;;4.30;;
10945;SDS011;5525;42.648;23.368;2023-08-06T14:12:01;6.80;;;4.57;;
10945;SDS011;5525;42.648;23.368;2023-08-06T14:14:28;5.10;;;4.60;;
10945;SDS011;5525;42.648;23.368;2023-08-06T14:16:54;4.68;;;4.25;;
10945;SDS011;5525;42.648;23.368;2023-08-06T14:19:23;5.47;;;4.10;;
10945;SDS011;5525;42.648;23.368;2023-08-06T14:21:49;5.90;;;4.53;;
10945;SDS011;5525;42.648;23.368;2023-08-06T14:24:16;4.68;;;4.18;;
10945;SDS011;5525;42.648;23.368;2023-08-06T14:26:43;5.40;;;4.70;;
10945;SDS011;5525;42.648;23.368;2023-08-06T14:29:09;4.60;;;4.20;;
10945;SDS011;5525;42.648;23.368;2023-08-06T14:31:36;5.05;;;4.07;;
10945;SDS011;5525;42.648;23.368;2023-08-06T14:34:02;4.57;;;3.88;;
10945;SDS011;5525;42.648;23.368;2023-08-06T14:36:31;3.83;;;3.53;;
10945;SDS011;5525;42.648;23.368;2023-08-06T14:38:58;4.75;;;3.90;;
10945;SDS011;5525;42.648;23.368;2023-08-06T14:41:24;4.30;;;3.90;;
10945;SDS011;5525;42.648;23.368;2023-08-06T14:43:51;4.50;;;4.10;;
10945;SDS011;5525;42.648;23.368;2023-08-06T14:46:18;4.75;;;4.03;;
10945;SDS011;5525;42.648;23.368;2023-08-06T14:48:45;4.38;;;3.97;;
10945;SDS011;5525;42.648;23.368;2023-08-06T14:51:11;6.93;;;4.07;;